CST,Max TemperatureF,Mean TemperatureF,Min TemperatureF,Max Dew PointF,MeanDew PointF,Min DewpointF,Max Humidity, Mean Humidity, Min Humidity, Max Sea Level PressureIn, Mean Sea Level PressureIn, Min Sea Level PressureIn, Max VisibilityMiles, Mean VisibilityMiles, Min VisibilityMiles, Max Wind SpeedMPH, Mean Wind SpeedMPH, Max Gust SpeedMPH,PrecipitationIn, CloudCover, Events, WindDirDegrees
2012-12-1,77,68,59,60,58,55,90,70,50,29.98,29.88,29.77,10,10,8,31,16,38,0.00,4,,171
2012-12-2,76,63,49,59,54,46,100,72,44,30.02,29.95,29.88,10,7,0,22,8,26,0.00,0,Fog,176
2012-12-3,76,71,66,59,56,46,78,64,50,29.99,29.85,29.75,10,10,10,31,23,41,0.00,5,,179
2012-12-4,65,51,36,46,34,26,67,46,24,30.32,30.19,29.98,10,10,10,18,9,24,0.00,1,Thunderstorm,2
2012-12-5,63,47,31,37,30,26,85,55,25,30.33,30.20,30.03,10,10,8,16,6,20,0.00,0,,150
2012-12-6,63,53,43,48,44,37,86,71,56,30.01,29.89,29.79,10,10,6,21,9,26,0.00,4,,151
2012-12-7,56,53,49,54,51,46,100,92,83,29.90,29.85,29.79,10,3,1,14,3,16,T,8,Rain,17
2012-12-8,55,51,46,50,47,45,96,87,77,29.94,29.88,29.80,5,4,2,12,5,16,0.00,8,,6
2012-12-9,51,40,29,48,38,13,100,72,44,30.14,29.89,29.75,10,6,2,24,13,31,0.01,7,Rain,342
2012-12-10,36,29,21,15,12,10,65,52,38,30.20,30.14,30.09,10,10,10,21,9,26,0.00,1,,308
2012-12-11,51,36,20,17,12,10,65,43,20,30.24,30.16,30.12,10,10,10,14,7,17,0.00,0,,180
2012-12-12,52,40,27,18,13,9,50,35,19,30.31,30.23,30.17,10,10,10,21,11,26,0.00,0,,169
2012-12-13,61,50,38,25,20,15,40,31,22,30.23,30.17,30.10,10,10,10,26,16,32,0.00,0,,169
2012-12-14,54,48,41,44,33,23,76,57,38,30.13,29.95,29.74,10,10,4,25,12,32,0.08,6,Rain,154
2012-12-15,64,55,46,47,40,36,93,66,39,29.75,29.71,29.64,10,10,9,23,11,30,0.00,1,,191
2012-12-16,68,55,41,39,35,25,89,55,20,29.75,29.69,29.60,10,10,6,21,8,26,0.00,0,,265
2012-12-17,56,47,37,37,34,32,92,68,43,29.85,29.80,29.75,10,7,5,14,7,16,0.00,4,,307
2012-12-18,62,49,35,35,33,31,73,52,30,29.82,29.77,29.71,10,10,10,16,5,20,0.00,0,,157
2012-12-19,70,52,33,59,46,30,92,67,42,29.79,29.59,29.42,10,10,8,36,11,44,0.00,4,,178
2012-12-20,52,41,30,38,20,11,70,50,29,30.36,30.09,29.55,10,10,10,37,19,52,T,3,Snow,295
2012-12-21,57,39,20,20,16,13,62,41,19,30.39,30.30,30.22,10,10,10,10,4,13,0.00,0,,161
2012-12-22,63,48,33,30,17,12,48,31,14,30.21,30.08,29.95,10,10,10,18,10,24,0.00,0,,168
2012-12-23,58,44,29,41,34,24,92,70,47,29.97,29.89,29.81,10,9,5,21,6,28,0.00,0,,349
2012-12-24,38,30,22,23,21,19,92,72,52,30.09,30.03,29.96,9,6,3,21,10,25,0.00,0,,2
2012-12-25,31,26,21,21,18,11,75,69,62,30.19,30.05,29.97,10,8,5,30,18,38,T,7,Rain,14
2012-12-26,33,24,14,17,13,8,80,65,49,30.32,30.22,30.15,10,10,10,22,8,26,0.00,1,,349
2012-12-27,37,29,21,28,24,16,84,74,64,30.13,30.01,29.92,10,10,8,22,9,26,0.00,2,,169
2012-12-28,35,29,22,30,25,12,92,75,57,30.20,30.04,29.99,10,6,1,14,6,16,0.02,6,Snow,314
2012-12-29,42,29,15,17,14,10,80,57,34,30.43,30.36,30.21,10,10,8,12,7,15,0.00,0,,264
2012-12-30,45,32,18,26,20,14,84,62,39,30.42,30.33,30.20,10,10,10,23,10,31,T,0,Rain,163
2012-12-31,38,37,35,37,35,32,100,91,82,30.20,30.09,29.99,10,4,1,15,6,18,0.69,8,Rain,158